createdAt,value
2017-11-12T00:02:21.956Z,64.90
2017-11-12T00:04:49.507Z,65.85
2017-11-12T00:07:17.036Z,64.78
2017-11-12T00:09:44.562Z,65.54
2017-11-12T00:12:12.243Z,65.09
2017-11-12T00:14:39.751Z,64.81
2017-11-12T00:17:07.263Z,64.72
2017-11-12T00:19:34.810Z,64.79
2017-11-12T00:22:02.331Z,64.69
2017-11-12T00:24:29.852Z,64.50
2017-11-12T00:26:57.491Z,64.38
2017-11-12T00:29:25.035Z,64.78
2017-11-12T00:31:52.549Z,64.15
2017-11-12T00:34:21.521Z,63.77
2017-11-12T00:36:49.086Z,63.94
2017-11-12T00:39:16.710Z,63.80
2017-11-12T00:41:44.544Z,63.75
2017-11-12T00:44:12.067Z,63.76
2017-11-12T00:46:39.596Z,63.57
2017-11-12T00:49:07.476Z,63.46
2017-11-12T00:51:34.996Z,63.48
2017-11-12T00:54:02.503Z,63.40
2017-11-12T00:56:30.363Z,63.43
2017-11-12T00:58:57.876Z,63.64
2017-11-12T01:01:25.384Z,63.98
2017-11-12T01:03:53.254Z,63.76
2017-11-12T01:06:20.778Z,63.70
2017-11-12T01:08:48.308Z,63.61
2017-11-12T01:11:15.968Z,63.72
2017-11-12T01:13:43.478Z,63.67
2017-11-12T01:16:12.727Z,63.62
2017-11-12T01:18:40.393Z,63.48
2017-11-12T01:21:08.122Z,63.54
2017-11-12T01:23:35.643Z,63.57
2017-11-12T01:26:03.276Z,63.44
2017-11-12T01:28:31.259Z,63.22
2017-11-12T01:30:58.793Z,63.10
2017-11-12T01:33:26.846Z,63.29
2017-11-12T01:35:54.415Z,63.50
2017-11-12T01:38:21.923Z,63.71
2017-11-12T01:40:50.042Z,64.52
2017-11-12T01:43:17.555Z,64.46
2017-11-12T01:45:45.077Z,64.80
2017-11-12T01:48:12.728Z,65.07
2017-11-12T01:50:40.248Z,64.99
2017-11-12T01:53:07.772Z,65.45
2017-11-12T01:55:36.295Z,64.85
2017-11-12T01:58:03.840Z,64.94
2017-11-12T02:00:31.534Z,64.66
2017-11-12T02:02:59.522Z,64.76
2017-11-12T02:05:27.038Z,64.52
2017-11-12T02:07:54.559Z,64.07
2017-11-12T02:10:22.255Z,64.28
2017-11-12T02:12:49.774Z,64.90
2017-11-12T02:15:17.706Z,64.99
2017-11-12T02:17:46.203Z,64.73
2017-11-12T02:20:13.778Z,64.97
2017-11-12T02:22:41.306Z,65.93
2017-11-12T02:25:08.883Z,65.85
2017-11-12T02:27:36.400Z,65.86
2017-11-12T02:30:03.920Z,65.32
2017-11-12T02:32:31.616Z,65.23
2017-11-12T02:34:59.156Z,65.55
2017-11-12T02:37:26.670Z,65.04
2017-11-12T02:39:54.302Z,64.57
2017-11-12T02:42:21.828Z,63.98
2017-11-12T02:44:49.348Z,64.16
2017-11-12T02:47:16.896Z,64.49
2017-11-12T02:49:44.416Z,64.18
2017-11-12T02:52:11.943Z,65.04
2017-11-12T02:54:39.496Z,64.56
2017-11-12T02:57:07.007Z,64.43
2017-11-12T02:59:34.527Z,64.15
2017-11-12T03:02:02.227Z,64.50
2017-11-12T03:04:29.743Z,64.50
2017-11-12T03:06:57.277Z,64.37
2017-11-12T03:09:24.849Z,65.19
2017-11-12T03:11:52.367Z,65.52
2017-11-12T03:14:19.884Z,65.11
2017-11-12T03:16:47.734Z,65.01
2017-11-12T03:19:15.248Z,65.20
2017-11-12T03:21:42.760Z,65.89
2017-11-12T03:24:10.443Z,66.17
2017-11-12T03:26:37.960Z,66.62
2017-11-12T03:29:05.485Z,65.95
2017-11-12T03:31:33.152Z,65.87
2017-11-12T03:34:00.671Z,65.85
2017-11-12T03:36:28.187Z,65.82
2017-11-12T03:38:55.880Z,66.57
2017-11-12T03:41:23.391Z,65.44
2017-11-12T03:43:50.908Z,66.00
2017-11-12T03:46:18.469Z,67.07
2017-11-12T03:48:46.031Z,67.42
2017-11-12T03:51:13.544Z,69.19
2017-11-12T03:53:41.340Z,68.83
2017-11-12T03:56:08.855Z,67.97
2017-11-12T03:58:36.363Z,67.80
2017-11-12T04:01:03.900Z,67.97
2017-11-12T04:03:31.412Z,67.32
2017-11-12T04:05:58.932Z,67.45
2017-11-12T04:08:26.484Z,67.00
2017-11-12T04:10:54.004Z,66.95
2017-11-12T04:13:21.515Z,66.94
2017-11-12T04:15:49.079Z,67.15
2017-11-12T04:18:16.603Z,67.89
2017-11-12T04:20:44.118Z,68.31
2017-11-12T04:23:11.984Z,68.87
2017-11-12T04:25:39.499Z,68.93
2017-11-12T04:28:07.038Z,68.68
2017-11-12T04:30:34.962Z,68.46
2017-11-12T04:33:02.472Z,68.04
2017-11-12T04:35:29.995Z,68.01
2017-11-12T04:37:57.544Z,68.10
2017-11-12T04:40:25.067Z,68.76
2017-11-12T04:42:52.579Z,68.12
2017-11-12T04:45:20.498Z,67.45
2017-11-12T04:47:48.042Z,67.29
2017-11-12T04:50:15.595Z,67.28
2017-11-12T04:52:43.466Z,66.31
2017-11-12T04:55:11.143Z,66.23
2017-11-12T04:57:38.645Z,65.38
2017-11-12T05:00:06.328Z,66.32
2017-11-12T05:02:33.843Z,66.37
2017-11-12T05:05:01.375Z,65.39
2017-11-12T05:07:28.940Z,66.19
2017-11-12T05:09:56.447Z,65.58
2017-11-12T05:12:23.975Z,66.29
2017-11-12T05:14:51.852Z,66.47
2017-11-12T05:17:19.363Z,66.77
2017-11-12T05:19:46.871Z,65.95
2017-11-12T05:22:14.504Z,66.00
2017-11-12T05:24:42.080Z,65.72
2017-11-12T05:27:09.599Z,66.39
2017-11-12T05:29:37.151Z,66.42
2017-11-12T05:32:04.663Z,66.86
2017-11-12T05:34:32.180Z,66.10
2017-11-12T05:36:59.866Z,65.89
2017-11-12T05:39:27.380Z,65.57
2017-11-12T05:41:54.890Z,65.13
2017-11-12T05:44:22.619Z,65.34
2017-11-12T05:46:50.133Z,65.53
2017-11-12T05:49:17.649Z,65.83
2017-11-12T05:51:45.422Z,65.35
2017-11-12T05:54:12.963Z,65.56
2017-11-12T05:56:40.480Z,65.84
2017-11-12T05:59:08.027Z,65.90
2017-11-12T06:01:35.543Z,66.28
2017-11-12T06:04:03.068Z,67.35
2017-11-12T06:06:30.716Z,67.77
2017-11-12T06:08:58.228Z,66.84
2017-11-12T06:11:25.749Z,66.27
2017-11-12T06:13:53.587Z,66.85
2017-11-12T06:16:21.112Z,67.28
2017-11-12T06:18:48.624Z,67.34
2017-11-12T06:21:16.190Z,67.25
2017-11-12T06:23:43.714Z,66.79
2017-11-12T06:26:11.236Z,66.82
2017-11-12T06:28:39.095Z,67.73
2017-11-12T06:31:06.615Z,68.19
2017-11-12T06:33:34.218Z,68.23
2017-11-12T06:36:01.823Z,68.02
2017-11-12T06:38:29.335Z,67.51
2017-11-12T06:40:56.845Z,66.46
2017-11-12T06:43:24.647Z,67.64
2017-11-12T06:45:52.160Z,67.01
2017-11-12T06:48:19.679Z,66.93
2017-11-12T06:50:47.474Z,66.54
2017-11-12T06:53:14.996Z,66.55
2017-11-12T06:55:42.511Z,65.97
2017-11-12T06:58:10.143Z,65.68
2017-11-12T07:00:37.664Z,65.55
2017-11-12T07:03:05.180Z,66.43
2017-11-12T07:05:32.760Z,65.46
2017-11-12T07:08:00.290Z,65.14
2017-11-12T07:10:27.807Z,66.15
2017-11-12T07:12:55.494Z,65.53
2017-11-12T07:15:23.016Z,65.27
2017-11-12T07:17:50.528Z,64.96
2017-11-12T07:20:18.227Z,64.95
2017-11-12T07:22:45.738Z,64.19
2017-11-12T07:25:13.311Z,63.75
2017-11-12T07:27:40.960Z,63.71
2017-11-12T07:30:08.481Z,63.84
2017-11-12T07:32:35.998Z,63.48
2017-11-12T07:35:03.791Z,63.60
2017-11-12T07:37:31.311Z,64.02
2017-11-12T07:39:58.834Z,63.74
2017-11-12T07:42:26.478Z,64.36
2017-11-12T07:44:54.007Z,63.92
2017-11-12T07:47:21.535Z,64.05
2017-11-12T07:49:49.092Z,63.80
2017-11-12T07:52:16.621Z,63.43
2017-11-12T07:54:44.147Z,63.29
2017-11-12T07:57:11.700Z,63.33
2017-11-12T07:59:39.239Z,63.11
2017-11-12T08:02:06.770Z,63.50
2017-11-12T08:04:34.715Z,63.44
2017-11-12T08:07:02.236Z,64.23
2017-11-12T08:09:29.753Z,64.10
2017-11-12T08:11:57.328Z,63.57
2017-11-12T08:14:25.686Z,64.24
2017-11-12T08:16:53.203Z,65.79
2017-11-12T08:19:20.853Z,66.46
2017-11-12T08:21:48.379Z,66.92
2017-11-12T08:24:15.908Z,66.12
2017-11-12T08:26:43.560Z,66.57
2017-11-12T08:29:11.079Z,65.37
2017-11-12T08:31:38.598Z,65.24
2017-11-12T08:34:06.310Z,65.03
2017-11-12T08:36:33.847Z,65.55
2017-11-12T08:39:01.388Z,66.00
2017-11-12T08:41:29.243Z,65.74
2017-11-12T08:43:56.755Z,65.51
2017-11-12T08:46:24.280Z,67.33
2017-11-12T08:48:52.065Z,65.98
2017-11-12T08:51:19.659Z,65.90
2017-11-12T08:53:47.185Z,66.39
2017-11-12T08:56:14.755Z,65.64
2017-11-12T08:58:42.284Z,65.70
2017-11-12T09:01:09.911Z,65.71
2017-11-12T09:03:37.579Z,66.82
2017-11-12T09:06:05.100Z,67.33
2017-11-12T09:08:32.640Z,67.37
2017-11-12T09:11:00.286Z,67.82
2017-11-12T09:13:27.858Z,67.92
2017-11-12T09:15:55.409Z,66.99
2017-11-12T09:18:22.951Z,68.87
2017-11-12T09:20:50.872Z,67.94
2017-11-12T09:23:18.591Z,68.13
2017-11-12T09:25:46.362Z,67.04
2017-11-12T09:28:13.977Z,66.12
2017-11-12T09:30:41.509Z,65.44
2017-11-12T09:33:09.227Z,65.53
2017-11-12T09:35:36.740Z,65.04
2017-11-12T09:38:04.260Z,64.82
2017-11-12T09:40:31.972Z,64.28
2017-11-12T09:42:59.496Z,63.94
2017-11-12T09:45:27.049Z,63.54
2017-11-12T09:47:54.760Z,62.96
2017-11-12T09:50:23.254Z,63.04
2017-11-12T09:52:50.841Z,63.19
2017-11-12T09:55:18.451Z,62.77
2017-11-12T09:57:46.206Z,62.95
2017-11-12T10:00:13.833Z,63.02
2017-11-12T10:02:41.919Z,62.95
2017-11-12T10:05:09.494Z,62.42
2017-11-12T10:07:37.017Z,62.27
2017-11-12T10:10:04.667Z,62.58
2017-11-12T10:12:32.192Z,62.54
2017-11-12T10:14:59.809Z,62.29
2017-11-12T10:17:27.469Z,62.38
2017-11-12T10:19:54.987Z,62.19
2017-11-12T10:22:22.516Z,62.26
2017-11-12T10:24:50.167Z,63.05
2017-11-12T10:27:18.632Z,63.47
2017-11-12T10:29:46.192Z,63.45
2017-11-12T10:32:13.883Z,63.64
2017-11-12T10:34:41.485Z,66.14
2017-11-12T10:37:10.416Z,65.85
2017-11-12T10:39:40.507Z,67.68
2017-11-12T10:42:08.852Z,67.97
2017-11-12T10:44:38.182Z,69.00
2017-11-12T10:47:07.036Z,68.44
2017-11-12T10:49:36.090Z,68.16
2017-11-12T10:52:04.754Z,68.19
2017-11-12T10:54:34.568Z,68.71
2017-11-12T10:57:02.881Z,69.49
2017-11-12T10:59:30.913Z,69.77
2017-11-12T11:02:01.200Z,69.15
2017-11-12T11:04:35.505Z,69.87
2017-11-12T11:07:03.211Z,71.09
2017-11-12T11:09:30.856Z,69.95
2017-11-12T11:11:58.578Z,69.72
2017-11-12T11:14:26.177Z,70.66
2017-11-12T11:16:53.700Z,70.00
2017-11-12T11:19:22.044Z,70.52
2017-11-12T11:21:49.953Z,71.37
2017-11-12T11:24:17.948Z,70.51
2017-11-12T11:26:45.622Z,70.85
2017-11-12T11:29:13.299Z,70.84
2017-11-12T11:31:40.934Z,70.10
2017-11-12T11:34:08.907Z,72.56
2017-11-12T11:36:36.570Z,71.71
2017-11-12T11:39:04.104Z,72.61
2017-11-12T11:41:31.932Z,72.99
2017-11-12T11:43:59.545Z,72.06
2017-11-12T11:46:27.084Z,72.55
2017-11-12T11:48:54.728Z,70.99
2017-11-12T11:51:22.301Z,71.50
2017-11-12T11:53:49.924Z,70.75
2017-11-12T11:56:17.620Z,70.79
2017-11-12T11:58:45.224Z,70.05
2017-11-12T12:01:12.779Z,68.62
2017-11-12T12:03:40.492Z,68.72
2017-11-12T12:06:08.032Z,68.40
2017-11-12T12:08:35.597Z,68.71
2017-11-12T12:11:03.720Z,68.82
2017-11-12T12:13:31.249Z,68.45
2017-11-12T12:16:00.139Z,70.17
2017-11-12T12:18:28.720Z,70.02
2017-11-12T12:20:56.390Z,70.12
2017-11-12T12:23:24.094Z,70.08
2017-11-12T12:25:51.763Z,70.91
2017-11-12T12:28:19.410Z,71.43
2017-11-12T12:30:47.123Z,72.40
2017-11-12T12:33:15.274Z,72.32
2017-11-12T12:35:43.822Z,72.36
2017-11-12T12:38:11.367Z,72.90
2017-11-12T12:40:39.760Z,72.34
2017-11-12T12:43:07.562Z,71.22
2017-11-12T12:45:35.315Z,66.69
2017-11-12T12:48:03.525Z,67.36
2017-11-12T12:50:31.224Z,68.11
2017-11-12T12:52:58.940Z,68.63
2017-11-12T12:55:26.840Z,68.23
2017-11-12T12:57:54.560Z,69.31
2017-11-12T13:00:22.265Z,68.34
2017-11-12T13:02:50.423Z,67.81
2017-11-12T13:05:18.136Z,68.06
2017-11-12T13:07:45.840Z,67.04
2017-11-12T13:10:14.249Z,66.98
2017-11-12T13:12:42.011Z,66.71
2017-11-12T13:15:09.902Z,66.36
2017-11-12T13:17:37.752Z,66.82
2017-11-12T13:20:05.414Z,65.81
2017-11-12T13:22:33.148Z,65.61
2017-11-12T13:25:00.926Z,65.96
2017-11-12T13:27:28.641Z,66.31
2017-11-12T13:29:56.353Z,66.63
2017-11-12T13:32:24.342Z,68.31
2017-11-12T13:34:52.101Z,68.82
2017-11-12T13:37:19.879Z,68.12
2017-11-12T13:39:48.791Z,69.20
2017-11-12T13:42:16.514Z,69.57
2017-11-12T13:44:44.494Z,69.52
2017-11-12T13:47:12.565Z,68.79
2017-11-12T13:49:40.313Z,67.88
2017-11-12T13:52:09.682Z,68.98
2017-11-12T13:54:38.428Z,70.07
2017-11-12T13:57:06.228Z,68.97
2017-11-12T13:59:33.911Z,69.53
2017-11-12T14:02:01.730Z,68.88
2017-11-12T14:04:29.403Z,68.20
2017-11-12T14:06:57.098Z,67.62
2017-11-12T14:09:25.664Z,68.35
2017-11-12T14:11:53.398Z,66.63
2017-11-12T14:14:21.060Z,67.23
2017-11-12T14:16:49.007Z,68.24
2017-11-12T14:19:16.960Z,67.94
2017-11-12T14:21:44.605Z,67.14
2017-11-12T14:24:12.372Z,67.06
2017-11-12T14:26:39.956Z,67.20
2017-11-12T14:29:07.617Z,67.05
2017-11-12T14:31:35.406Z,66.75
2017-11-12T14:34:02.932Z,66.62
2017-11-12T14:36:30.625Z,66.72
2017-11-12T14:38:58.356Z,67.46
2017-11-12T14:41:26.269Z,67.42
2017-11-12T14:43:53.883Z,67.92
2017-11-12T14:46:21.993Z,67.86
2017-11-12T14:48:49.740Z,67.16
2017-11-12T14:51:17.340Z,66.23
2017-11-12T14:53:45.765Z,66.29
2017-11-12T14:56:13.411Z,66.08
2017-11-12T14:58:41.089Z,66.06
2017-11-12T15:01:09.805Z,66.28
2017-11-12T15:03:37.336Z,67.13
2017-11-12T15:06:04.913Z,66.53
2017-11-12T15:08:33.460Z,66.67
2017-11-12T15:11:01.092Z,66.66
2017-11-12T15:13:28.807Z,67.32
2017-11-12T15:15:56.796Z,66.75
2017-11-12T15:18:24.383Z,66.55
2017-11-12T15:20:52.075Z,66.08
2017-11-12T15:23:20.056Z,66.56
2017-11-12T15:25:47.754Z,67.17
2017-11-12T15:28:15.382Z,66.92
2017-11-12T15:30:43.131Z,67.01
2017-11-12T15:33:10.843Z,67.45
2017-11-12T15:35:38.494Z,67.44
2017-11-12T15:38:06.332Z,67.48
2017-11-12T15:40:33.955Z,66.96
2017-11-12T15:43:01.563Z,68.03
2017-11-12T15:45:29.675Z,66.74
2017-11-12T15:47:57.644Z,67.34
2017-11-12T15:50:25.677Z,66.64
2017-11-12T15:52:53.718Z,67.52
2017-11-12T15:55:21.493Z,66.90
2017-11-12T15:57:50.101Z,66.75
2017-11-12T16:00:18.049Z,66.98
2017-11-12T16:02:45.842Z,67.48
2017-11-12T16:05:13.848Z,66.84
2017-11-12T16:07:41.641Z,67.75
2017-11-12T16:10:09.496Z,67.05
2017-11-12T16:12:37.516Z,66.63
2017-11-12T16:15:05.497Z,66.98
2017-11-12T16:17:33.207Z,66.97
2017-11-12T16:20:00.891Z,68.18
2017-11-12T16:22:28.737Z,67.22
2017-11-12T16:24:56.474Z,66.83
2017-11-12T16:27:24.409Z,66.64
2017-11-12T16:29:52.214Z,66.75
2017-11-12T16:32:19.994Z,66.21
2017-11-12T16:34:47.701Z,65.93
2017-11-12T16:37:16.161Z,66.43
2017-11-12T16:39:43.827Z,66.19
2017-11-12T16:42:12.699Z,65.59
2017-11-12T16:44:40.858Z,65.61
2017-11-12T16:47:09.362Z,66.47
2017-11-12T16:49:37.197Z,66.27
2017-11-12T16:52:04.968Z,66.55
2017-11-12T16:54:32.741Z,66.21
2017-11-12T16:57:00.493Z,66.86
2017-11-12T16:59:28.719Z,67.84
2017-11-12T17:01:56.762Z,67.60
2017-11-12T17:04:24.517Z,68.29
2017-11-12T17:06:52.592Z,68.83
2017-11-12T17:09:20.340Z,68.36
2017-11-12T17:11:48.401Z,68.10
2017-11-12T17:14:16.669Z,68.04
2017-11-12T17:16:44.391Z,67.70
2017-11-12T17:19:12.339Z,68.20
2017-11-12T17:21:40.875Z,67.11
2017-11-12T17:24:08.600Z,67.51
2017-11-12T17:26:36.631Z,67.93
2017-11-12T17:29:04.539Z,67.85
2017-11-12T17:31:32.204Z,67.82
2017-11-12T17:33:59.904Z,67.32
2017-11-12T17:36:27.732Z,67.95
2017-11-12T17:38:55.409Z,68.58
2017-11-12T17:41:23.126Z,67.76
2017-11-12T17:43:51.036Z,67.43
2017-11-12T17:46:18.733Z,67.99
2017-11-12T17:48:46.510Z,67.88
2017-11-12T17:51:15.352Z,68.45
2017-11-12T17:53:43.088Z,68.18
2017-11-12T17:56:10.809Z,68.33
2017-11-12T17:58:38.717Z,67.70
2017-11-12T18:01:07.375Z,68.31
2017-11-12T18:03:35.451Z,67.11
2017-11-12T18:06:03.338Z,67.55
2017-11-12T18:08:31.076Z,66.25
2017-11-12T18:10:58.938Z,66.59
2017-11-12T18:13:27.192Z,66.26
2017-11-12T18:15:55.476Z,66.70
2017-11-12T18:18:23.348Z,66.14
2017-11-12T18:20:51.361Z,66.39
2017-11-12T18:23:19.083Z,66.61
2017-11-12T18:25:46.943Z,66.21
2017-11-12T18:28:15.346Z,65.44
2017-11-12T18:30:43.023Z,66.29
2017-11-12T18:33:10.755Z,67.02
2017-11-12T18:35:38.723Z,66.32
2017-11-12T18:38:06.489Z,66.13
2017-11-12T18:40:34.228Z,65.32
2017-11-12T18:43:02.319Z,66.34
2017-11-12T18:45:30.092Z,65.87
2017-11-12T18:47:57.874Z,66.92
2017-11-12T18:50:26.112Z,66.38
2017-11-12T18:52:53.861Z,66.72
2017-11-12T18:55:27.059Z,66.82
2017-11-12T19:11:34.052Z,65.27
2017-11-12T19:14:01.803Z,65.89
2017-11-12T19:16:29.566Z,65.81
2017-11-12T19:19:07.270Z,66.21
2017-11-12T19:21:38.612Z,65.94
2017-11-12T19:24:12.748Z,65.47
2017-11-12T19:26:41.410Z,65.67
2017-11-12T19:29:12.768Z,65.74
2017-11-12T19:31:40.411Z,65.03
2017-11-12T19:34:08.013Z,65.03
2017-11-12T19:36:36.054Z,64.35
2017-11-12T19:39:03.920Z,64.58
2017-11-12T19:41:32.148Z,63.99
2017-11-12T19:44:00.471Z,64.52
2017-11-12T19:46:29.386Z,64.55
2017-11-12T19:48:57.227Z,64.62
2017-11-12T19:51:25.107Z,64.55
2017-11-12T19:53:52.869Z,63.93
2017-11-12T19:56:20.724Z,63.74
2017-11-12T19:58:48.700Z,63.08
2017-11-12T20:01:17.065Z,63.14
2017-11-12T20:03:44.846Z,62.56
2017-11-12T20:06:13.048Z,62.73
2017-11-12T20:08:40.976Z,62.93
2017-11-12T20:11:08.841Z,62.97
2017-11-12T20:13:36.728Z,63.47
2017-11-12T20:16:05.600Z,62.53
2017-11-12T20:18:40.210Z,63.80
2017-11-12T20:21:08.420Z,62.54
2017-11-12T20:23:36.188Z,63.39
2017-11-12T20:26:04.133Z,62.42
2017-11-12T20:28:31.893Z,62.07
2017-11-12T20:30:59.669Z,61.88
2017-11-12T20:33:27.739Z,62.18
2017-11-12T20:35:55.595Z,62.23
2017-11-12T20:38:23.358Z,61.91
2017-11-12T20:40:52.265Z,61.91
2017-11-12T20:43:20.224Z,62.33
2017-11-12T20:45:48.188Z,62.28
2017-11-12T20:48:16.768Z,61.84
2017-11-12T20:50:44.642Z,61.69
2017-11-12T20:53:12.618Z,61.99
2017-11-12T20:55:40.574Z,62.02
2017-11-12T20:58:08.349Z,61.42
2017-11-12T21:00:36.207Z,62.20
2017-11-12T21:03:04.231Z,61.82
2017-11-12T21:05:32.040Z,62.54
2017-11-12T21:07:59.811Z,62.77
2017-11-12T21:10:27.664Z,62.04
2017-11-12T21:12:55.424Z,61.42
2017-11-12T21:15:23.198Z,61.78
2017-11-12T21:17:51.174Z,61.68
2017-11-12T21:23:40.248Z,62.88
2017-11-12T21:26:08.015Z,61.57
2017-11-12T21:28:37.731Z,62.37
2017-11-12T21:34:19.639Z,61.68
2017-11-12T21:39:56.956Z,62.17
2017-11-12T21:42:24.806Z,62.62
2017-11-12T21:44:52.652Z,62.38
2017-11-12T21:47:20.445Z,61.93
2017-11-12T21:52:46.759Z,61.43
2017-11-12T21:55:14.351Z,61.80
2017-11-12T21:57:41.939Z,61.59
2017-11-12T22:00:10.416Z,62.64
2017-11-12T22:02:38.362Z,62.26
2017-11-12T22:05:05.947Z,62.57
2017-11-12T22:07:33.684Z,62.80
2017-11-12T22:10:01.280Z,63.46
2017-11-12T22:12:28.841Z,61.99
2017-11-12T22:14:56.368Z,61.70
2017-11-12T22:17:24.109Z,62.40
2017-11-12T22:19:51.689Z,62.80
2017-11-12T22:22:19.244Z,62.73
2017-11-12T22:24:46.953Z,62.64
2017-11-12T22:27:17.126Z,62.70
2017-11-12T22:29:44.689Z,62.83
2017-11-12T22:32:28.556Z,62.35
2017-11-12T22:34:56.087Z,62.86
2017-11-12T22:37:23.607Z,63.03
2017-11-12T22:39:51.613Z,62.58
2017-11-12T22:42:19.192Z,63.95
2017-11-12T22:44:46.759Z,62.41
2017-11-12T22:47:14.571Z,62.75
2017-11-12T22:49:43.079Z,62.79
2017-11-12T22:52:10.637Z,63.16
2017-11-12T22:54:39.229Z,63.27
2017-11-12T22:57:06.751Z,63.40
2017-11-12T22:59:34.442Z,62.82
2017-11-12T23:02:03.468Z,62.39
2017-11-12T23:04:33.269Z,63.42
2017-11-12T23:07:00.908Z,62.80
2017-11-12T23:09:29.700Z,62.50
2017-11-12T23:11:57.243Z,61.91
2017-11-12T23:14:24.781Z,62.29
2017-11-12T23:16:53.090Z,62.66
2017-11-12T23:19:20.668Z,62.98
2017-11-12T23:21:48.318Z,62.27
2017-11-12T23:24:16.183Z,61.89
2017-11-12T23:26:43.805Z,61.52
2017-11-12T23:29:11.346Z,62.04
2017-11-12T23:31:39.008Z,61.43
2017-11-12T23:34:06.736Z,61.97
2017-11-12T23:36:34.259Z,61.52
2017-11-12T23:39:02.401Z,61.11
2017-11-12T23:41:29.961Z,61.53
2017-11-12T23:43:57.879Z,61.68
2017-11-12T23:46:25.447Z,62.08
2017-11-12T23:48:52.983Z,62.29
2017-11-12T23:51:20.500Z,62.24
2017-11-12T23:53:48.115Z,62.80
2017-11-12T23:56:15.636Z,62.65
2017-11-12T23:58:43.152Z,62.28
